sensor_id;sensor_type;location;lat;lon;timestamp;P1;durP1;ratioP1;P2;durP2;ratioP2
23658;SDS011;12006;42.666;23.326;2023-03-01T00:01:06;4.83;;;4.00;;
23658;SDS011;12006;42.666;23.326;2023-03-01T00:03:33;4.13;;;3.70;;
23658;SDS011;12006;42.666;23.326;2023-03-01T00:05:59;5.27;;;4.30;;
23658;SDS011;12006;42.666;23.326;2023-03-01T00:08:25;5.30;;;4.20;;
23658;SDS011;12006;42.666;23.326;2023-03-01T00:11:06;4.83;;;3.93;;
23658;SDS011;12006;42.666;23.326;2023-03-01T00:13:33;5.53;;;4.50;;
23658;SDS011;12006;42.666;23.326;2023-03-01T00:16:07;6.00;;;3.90;;
23658;SDS011;12006;42.666;23.326;2023-03-01T00:18:36;4.73;;;3.90;;
23658;SDS011;12006;42.666;23.326;2023-03-01T00:21:02;4.50;;;4.03;;
23658;SDS011;12006;42.666;23.326;2023-03-01T00:23:28;4.03;;;3.63;;
23658;SDS011;12006;42.666;23.326;2023-03-01T00:25:54;4.57;;;3.60;;
23658;SDS011;12006;42.666;23.326;2023-03-01T00:28:20;3.50;;;3.20;;
23658;SDS011;12006;42.666;23.326;2023-03-01T00:30:46;3.77;;;3.47;;
23658;SDS011;12006;42.666;23.326;2023-03-01T00:33:12;3.67;;;3.37;;
23658;SDS011;12006;42.666;23.326;2023-03-01T00:35:37;3.83;;;3.53;;
23658;SDS011;12006;42.666;23.326;2023-03-01T00:38:03;3.83;;;3.43;;
23658;SDS011;12006;42.666;23.326;2023-03-01T00:40:29;3.77;;;3.47;;
23658;SDS011;12006;42.666;23.326;2023-03-01T00:42:55;4.03;;;3.20;;
23658;SDS011;12006;42.666;23.326;2023-03-01T00:45:21;3.97;;;3.60;;
23658;SDS011;12006;42.666;23.326;2023-03-01T00:47:46;3.83;;;3.33;;
23658;SDS011;12006;42.666;23.326;2023-03-01T00:50:13;3.77;;;3.20;;
23658;SDS011;12006;42.666;23.326;2023-03-01T00:52:38;3.57;;;3.27;;
23658;SDS011;12006;42.666;23.326;2023-03-01T00:55:04;3.50;;;3.20;;
23658;SDS011;12006;42.666;23.326;2023-03-01T00:57:30;3.80;;;3.50;;
23658;SDS011;12006;42.666;23.326;2023-03-01T00:59:56;4.13;;;3.77;;
23658;SDS011;12006;42.666;23.326;2023-03-01T01:02:21;3.47;;;3.17;;
23658;SDS011;12006;42.666;23.326;2023-03-01T01:04:47;4.17;;;3.77;;
23658;SDS011;12006;42.666;23.326;2023-03-01T01:07:12;3.50;;;3.20;;
23658;SDS011;12006;42.666;23.326;2023-03-01T01:09:39;3.40;;;3.10;;
23658;SDS011;12006;42.666;23.326;2023-03-01T01:12:04;2.70;;;2.50;;
23658;SDS011;12006;42.666;23.326;2023-03-01T01:14:31;2.90;;;2.60;;
23658;SDS011;12006;42.666;23.326;2023-03-01T01:16:56;3.20;;;2.90;;
23658;SDS011;12006;42.666;23.326;2023-03-01T01:19:22;3.43;;;2.63;;
23658;SDS011;12006;42.666;23.326;2023-03-01T01:21:48;2.63;;;2.43;;
23658;SDS011;12006;42.666;23.326;2023-03-01T01:24:14;2.90;;;2.60;;
23658;SDS011;12006;42.666;23.326;2023-03-01T01:26:40;3.53;;;3.23;;
23658;SDS011;12006;42.666;23.326;2023-03-01T01:29:06;3.00;;;2.70;;
23658;SDS011;12006;42.666;23.326;2023-03-01T01:31:34;2.93;;;2.67;;
23658;SDS011;12006;42.666;23.326;2023-03-01T01:34:01;2.43;;;2.23;;
23658;SDS011;12006;42.666;23.326;2023-03-01T01:36:29;2.43;;;2.23;;
23658;SDS011;12006;42.666;23.326;2023-03-01T01:38:55;3.00;;;2.80;;
23658;SDS011;12006;42.666;23.326;2023-03-01T01:41:21;2.30;;;2.10;;
23658;SDS011;12006;42.666;23.326;2023-03-01T01:43:49;2.30;;;2.10;;
23658;SDS011;12006;42.666;23.326;2023-03-01T01:46:35;2.17;;;1.97;;
23658;SDS011;12006;42.666;23.326;2023-03-01T01:49:15;2.30;;;1.90;;
23658;SDS011;12006;42.666;23.326;2023-03-01T01:51:47;2.13;;;2.00;;
23658;SDS011;12006;42.666;23.326;2023-03-01T01:54:19;2.13;;;2.00;;
23658;SDS011;12006;42.666;23.326;2023-03-01T01:56:52;2.37;;;2.17;;
23658;SDS011;12006;42.666;23.326;2023-03-01T01:59:23;2.13;;;2.03;;
23658;SDS011;12006;42.666;23.326;2023-03-01T02:01:52;2.20;;;2.00;;
23658;SDS011;12006;42.666;23.326;2023-03-01T02:04:18;2.17;;;2.07;;
23658;SDS011;12006;42.666;23.326;2023-03-01T02:06:48;1.80;;;1.70;;
23658;SDS011;12006;42.666;23.326;2023-03-01T02:09:19;2.60;;;1.90;;
23658;SDS011;12006;42.666;23.326;2023-03-01T02:11:47;2.00;;;1.90;;
23658;SDS011;12006;42.666;23.326;2023-03-01T02:14:14;1.83;;;1.73;;
23658;SDS011;12006;42.666;23.326;2023-03-01T02:16:40;2.10;;;1.93;;
23658;SDS011;12006;42.666;23.326;2023-03-01T02:19:07;2.20;;;2.00;;
23658;SDS011;12006;42.666;23.326;2023-03-01T02:24:53;1.90;;;1.80;;
23658;SDS011;12006;42.666;23.326;2023-03-01T02:27:41;2.10;;;2.00;;
23658;SDS011;12006;42.666;23.326;2023-03-01T02:30:19;2.47;;;2.27;;
23658;SDS011;12006;42.666;23.326;2023-03-01T02:32:46;2.40;;;2.20;;
23658;SDS011;12006;42.666;23.326;2023-03-01T02:35:14;1.90;;;1.80;;
23658;SDS011;12006;42.666;23.326;2023-03-01T02:37:42;2.17;;;1.97;;
23658;SDS011;12006;42.666;23.326;2023-03-01T02:40:11;2.40;;;2.30;;
23658;SDS011;12006;42.666;23.326;2023-03-01T02:42:45;2.23;;;2.13;;
23658;SDS011;12006;42.666;23.326;2023-03-01T02:45:15;2.30;;;2.10;;
23658;SDS011;12006;42.666;23.326;2023-03-01T02:47:40;2.57;;;2.10;;
23658;SDS011;12006;42.666;23.326;2023-03-01T02:53:15;2.10;;;2.00;;
23658;SDS011;12006;42.666;23.326;2023-03-01T02:55:48;2.80;;;2.40;;
23658;SDS011;12006;42.666;23.326;2023-03-01T02:58:14;2.70;;;2.50;;
23658;SDS011;12006;42.666;23.326;2023-03-01T03:00:41;2.70;;;2.50;;
23658;SDS011;12006;42.666;23.326;2023-03-01T03:03:21;2.87;;;2.67;;
23658;SDS011;12006;42.666;23.326;2023-03-01T03:05:47;3.00;;;2.80;;
23658;SDS011;12006;42.666;23.326;2023-03-01T03:08:13;3.10;;;2.90;;
23658;SDS011;12006;42.666;23.326;2023-03-01T03:10:41;2.47;;;2.27;;
23658;SDS011;12006;42.666;23.326;2023-03-01T03:13:11;3.17;;;2.77;;
23658;SDS011;12006;42.666;23.326;2023-03-01T03:15:38;2.93;;;2.67;;
23658;SDS011;12006;42.666;23.326;2023-03-01T03:18:07;3.30;;;3.00;;
23658;SDS011;12006;42.666;23.326;2023-03-01T03:20:34;3.73;;;3.43;;
23658;SDS011;12006;42.666;23.326;2023-03-01T03:22:59;3.70;;;3.40;;
23658;SDS011;12006;42.666;23.326;2023-03-01T03:25:26;3.80;;;3.50;;
23658;SDS011;12006;42.666;23.326;2023-03-01T03:27:53;3.47;;;3.17;;
23658;SDS011;12006;42.666;23.326;2023-03-01T03:30:24;3.93;;;3.63;;
23658;SDS011;12006;42.666;23.326;2023-03-01T03:32:51;3.77;;;3.20;;
23658;SDS011;12006;42.666;23.326;2023-03-01T03:38:29;3.60;;;3.30;;
23658;SDS011;12006;42.666;23.326;2023-03-01T03:41:02;3.57;;;3.27;;
23658;SDS011;12006;42.666;23.326;2023-03-01T03:43:30;3.10;;;2.80;;
23658;SDS011;12006;42.666;23.326;2023-03-01T03:45:58;3.67;;;2.97;;
23658;SDS011;12006;42.666;23.326;2023-03-01T03:48:24;3.17;;;2.87;;
23658;SDS011;12006;42.666;23.326;2023-03-01T03:50:50;2.73;;;2.53;;
23658;SDS011;12006;42.666;23.326;2023-03-01T03:53:18;3.27;;;2.57;;
23658;SDS011;12006;42.666;23.326;2023-03-01T03:55:44;3.27;;;2.97;;
23658;SDS011;12006;42.666;23.326;2023-03-01T03:58:10;2.67;;;2.40;;
23658;SDS011;12006;42.666;23.326;2023-03-01T04:00:38;2.43;;;2.23;;
23658;SDS011;12006;42.666;23.326;2023-03-01T04:03:05;3.20;;;2.90;;
23658;SDS011;12006;42.666;23.326;2023-03-01T04:05:30;2.70;;;2.50;;
23658;SDS011;12006;42.666;23.326;2023-03-01T04:07:56;2.80;;;2.60;;
23658;SDS011;12006;42.666;23.326;2023-03-01T04:10:29;3.20;;;2.90;;
23658;SDS011;12006;42.666;23.326;2023-03-01T04:12:55;3.40;;;3.07;;
23658;SDS011;12006;42.666;23.326;2023-03-01T04:15:22;2.70;;;2.50;;
23658;SDS011;12006;42.666;23.326;2023-03-01T04:17:49;2.97;;;2.67;;
23658;SDS011;12006;42.666;23.326;2023-03-01T04:20:20;2.83;;;2.60;;
23658;SDS011;12006;42.666;23.326;2023-03-01T04:22:51;2.80;;;2.60;;
23658;SDS011;12006;42.666;23.326;2023-03-01T04:25:22;2.43;;;2.23;;
23658;SDS011;12006;42.666;23.326;2023-03-01T04:27:47;3.17;;;2.87;;
23658;SDS011;12006;42.666;23.326;2023-03-01T04:30:13;4.03;;;3.23;;
23658;SDS011;12006;42.666;23.326;2023-03-01T04:32:39;2.80;;;2.33;;
23658;SDS011;12006;42.666;23.326;2023-03-01T04:35:04;2.50;;;2.30;;
23658;SDS011;12006;42.666;23.326;2023-03-01T04:37:29;3.53;;;3.20;;
23658;SDS011;12006;42.666;23.326;2023-03-01T04:39:55;3.20;;;2.90;;
23658;SDS011;12006;42.666;23.326;2023-03-01T04:42:20;3.23;;;2.93;;
23658;SDS011;12006;42.666;23.326;2023-03-01T04:44:46;3.30;;;2.60;;
23658;SDS011;12006;42.666;23.326;2023-03-01T04:47:11;4.47;;;2.77;;
23658;SDS011;12006;42.666;23.326;2023-03-01T04:49:37;3.20;;;2.80;;
23658;SDS011;12006;42.666;23.326;2023-03-01T04:52:03;3.07;;;2.87;;
23658;SDS011;12006;42.666;23.326;2023-03-01T04:54:31;4.23;;;3.83;;
23658;SDS011;12006;42.666;23.326;2023-03-01T04:56:57;4.00;;;3.70;;
23658;SDS011;12006;42.666;23.326;2023-03-01T04:59:23;2.73;;;2.53;;
23658;SDS011;12006;42.666;23.326;2023-03-01T05:01:49;3.03;;;2.70;;
23658;SDS011;12006;42.666;23.326;2023-03-01T05:04:23;4.10;;;3.70;;
23658;SDS011;12006;42.666;23.326;2023-03-01T05:06:49;4.67;;;2.83;;
23658;SDS011;12006;42.666;23.326;2023-03-01T05:09:15;3.50;;;3.17;;
23658;SDS011;12006;42.666;23.326;2023-03-01T05:11:41;3.00;;;2.50;;
23658;SDS011;12006;42.666;23.326;2023-03-01T05:14:07;3.00;;;2.63;;
23658;SDS011;12006;42.666;23.326;2023-03-01T05:16:33;3.90;;;2.93;;
23658;SDS011;12006;42.666;23.326;2023-03-01T05:19:01;3.47;;;3.17;;
23658;SDS011;12006;42.666;23.326;2023-03-01T05:21:36;4.37;;;3.97;;
23658;SDS011;12006;42.666;23.326;2023-03-01T05:24:24;3.50;;;3.20;;
23658;SDS011;12006;42.666;23.326;2023-03-01T05:26:50;3.23;;;2.90;;
23658;SDS011;12006;42.666;23.326;2023-03-01T05:29:17;3.10;;;2.47;;
23658;SDS011;12006;42.666;23.326;2023-03-01T05:31:55;4.33;;;2.60;;
23658;SDS011;12006;42.666;23.326;2023-03-01T05:34:30;3.73;;;2.67;;
23658;SDS011;12006;42.666;23.326;2023-03-01T05:36:58;3.00;;;2.77;;
23658;SDS011;12006;42.666;23.326;2023-03-01T05:39:24;4.73;;;2.63;;
23658;SDS011;12006;42.666;23.326;2023-03-01T05:41:57;3.20;;;2.90;;
23658;SDS011;12006;42.666;23.326;2023-03-01T05:44:24;2.90;;;2.60;;
23658;SDS011;12006;42.666;23.326;2023-03-01T05:46:51;2.53;;;2.20;;
23658;SDS011;12006;42.666;23.326;2023-03-01T05:49:17;2.63;;;2.43;;
23658;SDS011;12006;42.666;23.326;2023-03-01T05:51:43;2.50;;;2.30;;
23658;SDS011;12006;42.666;23.326;2023-03-01T05:54:13;3.07;;;2.27;;
23658;SDS011;12006;42.666;23.326;2023-03-01T05:56:39;2.20;;;2.00;;
23658;SDS011;12006;42.666;23.326;2023-03-01T05:59:05;2.40;;;2.20;;
23658;SDS011;12006;42.666;23.326;2023-03-01T06:01:34;3.13;;;2.83;;
23658;SDS011;12006;42.666;23.326;2023-03-01T06:04:01;2.80;;;2.60;;
23658;SDS011;12006;42.666;23.326;2023-03-01T06:06:27;3.60;;;2.93;;
23658;SDS011;12006;42.666;23.326;2023-03-01T06:08:54;2.93;;;2.60;;
23658;SDS011;12006;42.666;23.326;2023-03-01T06:11:20;2.90;;;2.70;;
23658;SDS011;12006;42.666;23.326;2023-03-01T06:13:46;2.97;;;2.50;;
23658;SDS011;12006;42.666;23.326;2023-03-01T06:16:12;3.07;;;2.77;;
23658;SDS011;12006;42.666;23.326;2023-03-01T06:18:39;3.10;;;2.80;;
23658;SDS011;12006;42.666;23.326;2023-03-01T06:21:05;7.33;;;3.17;;
23658;SDS011;12006;42.666;23.326;2023-03-01T06:23:31;3.40;;;2.67;;
23658;SDS011;12006;42.666;23.326;2023-03-01T06:25:56;5.30;;;3.40;;
23658;SDS011;12006;42.666;23.326;2023-03-01T06:28:22;4.27;;;3.80;;
23658;SDS011;12006;42.666;23.326;2023-03-01T06:30:47;3.93;;;3.53;;
23658;SDS011;12006;42.666;23.326;2023-03-01T06:33:14;4.13;;;3.73;;
23658;SDS011;12006;42.666;23.326;2023-03-01T06:35:39;3.67;;;3.37;;
23658;SDS011;12006;42.666;23.326;2023-03-01T06:38:05;3.23;;;2.90;;
23658;SDS011;12006;42.666;23.326;2023-03-01T06:40:30;4.10;;;3.13;;
23658;SDS011;12006;42.666;23.326;2023-03-01T06:42:57;3.10;;;2.80;;
23658;SDS011;12006;42.666;23.326;2023-03-01T06:45:23;4.23;;;3.83;;
23658;SDS011;12006;42.666;23.326;2023-03-01T06:47:49;3.17;;;2.87;;
23658;SDS011;12006;42.666;23.326;2023-03-01T06:50:15;3.80;;;3.00;;
23658;SDS011;12006;42.666;23.326;2023-03-01T06:52:41;2.87;;;2.63;;
23658;SDS011;12006;42.666;23.326;2023-03-01T06:55:08;6.33;;;3.00;;
23658;SDS011;12006;42.666;23.326;2023-03-01T06:57:34;5.37;;;3.10;;
23658;SDS011;12006;42.666;23.326;2023-03-01T07:00:00;4.37;;;2.93;;
23658;SDS011;12006;42.666;23.326;2023-03-01T07:02:25;3.57;;;2.63;;
23658;SDS011;12006;42.666;23.326;2023-03-01T07:04:51;2.47;;;2.27;;
23658;SDS011;12006;42.666;23.326;2023-03-01T07:07:16;5.47;;;4.43;;
23658;SDS011;12006;42.666;23.326;2023-03-01T07:09:46;3.87;;;3.10;;
23658;SDS011;12006;42.666;23.326;2023-03-01T07:12:13;3.60;;;2.70;;
23658;SDS011;12006;42.666;23.326;2023-03-01T07:14:39;2.60;;;2.40;;
23658;SDS011;12006;42.666;23.326;2023-03-01T07:17:04;3.20;;;2.23;;
23658;SDS011;12006;42.666;23.326;2023-03-01T07:19:29;3.53;;;2.10;;
23658;SDS011;12006;42.666;23.326;2023-03-01T07:21:55;3.67;;;2.90;;
23658;SDS011;12006;42.666;23.326;2023-03-01T07:24:21;2.50;;;2.30;;
23658;SDS011;12006;42.666;23.326;2023-03-01T07:26:49;3.73;;;2.80;;
23658;SDS011;12006;42.666;23.326;2023-03-01T07:29:16;3.87;;;3.20;;
23658;SDS011;12006;42.666;23.326;2023-03-01T07:31:42;3.60;;;2.63;;
23658;SDS011;12006;42.666;23.326;2023-03-01T07:34:08;3.77;;;2.40;;
23658;SDS011;12006;42.666;23.326;2023-03-01T07:36:33;2.73;;;2.40;;
23658;SDS011;12006;42.666;23.326;2023-03-01T07:38:59;4.83;;;2.47;;
23658;SDS011;12006;42.666;23.326;2023-03-01T07:41:27;2.80;;;2.60;;
23658;SDS011;12006;42.666;23.326;2023-03-01T07:43:52;4.13;;;2.60;;
23658;SDS011;12006;42.666;23.326;2023-03-01T07:46:18;4.43;;;2.13;;
23658;SDS011;12006;42.666;23.326;2023-03-01T07:48:44;4.10;;;2.70;;
23658;SDS011;12006;42.666;23.326;2023-03-01T07:51:09;3.17;;;2.83;;
23658;SDS011;12006;42.666;23.326;2023-03-01T07:53:35;5.20;;;4.63;;
23658;SDS011;12006;42.666;23.326;2023-03-01T07:56:03;4.53;;;4.10;;
23658;SDS011;12006;42.666;23.326;2023-03-01T07:58:30;4.93;;;4.43;;
23658;SDS011;12006;42.666;23.326;2023-03-01T08:00:57;6.07;;;5.13;;
23658;SDS011;12006;42.666;23.326;2023-03-01T08:03:26;3.33;;;2.77;;
23658;SDS011;12006;42.666;23.326;2023-03-01T08:05:51;2.87;;;2.27;;
23658;SDS011;12006;42.666;23.326;2023-03-01T08:08:17;6.20;;;2.50;;
23658;SDS011;12006;42.666;23.326;2023-03-01T08:10:42;6.07;;;4.40;;
23658;SDS011;12006;42.666;23.326;2023-03-01T08:13:08;2.73;;;2.50;;
23658;SDS011;12006;42.666;23.326;2023-03-01T08:15:33;3.53;;;2.80;;
23658;SDS011;12006;42.666;23.326;2023-03-01T08:17:58;3.60;;;2.60;;
23658;SDS011;12006;42.666;23.326;2023-03-01T08:20:24;2.60;;;2.30;;
23658;SDS011;12006;42.666;23.326;2023-03-01T08:22:49;5.80;;;3.47;;
23658;SDS011;12006;42.666;23.326;2023-03-01T08:25:15;3.90;;;3.33;;
23658;SDS011;12006;42.666;23.326;2023-03-01T08:27:40;3.20;;;2.90;;
23658;SDS011;12006;42.666;23.326;2023-03-01T08:30:06;3.60;;;3.30;;
23658;SDS011;12006;42.666;23.326;2023-03-01T08:32:35;3.70;;;3.40;;
23658;SDS011;12006;42.666;23.326;2023-03-01T08:35:04;3.70;;;3.40;;
23658;SDS011;12006;42.666;23.326;2023-03-01T08:37:30;3.20;;;2.90;;
23658;SDS011;12006;42.666;23.326;2023-03-01T08:39:58;5.43;;;4.20;;
23658;SDS011;12006;42.666;23.326;2023-03-01T08:42:25;4.70;;;4.30;;
23658;SDS011;12006;42.666;23.326;2023-03-01T08:44:50;5.17;;;3.43;;
23658;SDS011;12006;42.666;23.326;2023-03-01T08:47:15;3.20;;;2.83;;
23658;SDS011;12006;42.666;23.326;2023-03-01T08:49:41;2.70;;;2.50;;
23658;SDS011;12006;42.666;23.326;2023-03-01T08:52:06;2.30;;;2.10;;
23658;SDS011;12006;42.666;23.326;2023-03-01T08:54:32;2.63;;;2.23;;
23658;SDS011;12006;42.666;23.326;2023-03-01T08:56:57;2.63;;;2.33;;
23658;SDS011;12006;42.666;23.326;2023-03-01T08:59:24;2.53;;;2.33;;
23658;SDS011;12006;42.666;23.326;2023-03-01T09:01:50;2.97;;;2.57;;
23658;SDS011;12006;42.666;23.326;2023-03-01T09:04:15;3.20;;;2.90;;
23658;SDS011;12006;42.666;23.326;2023-03-01T09:06:41;2.93;;;2.73;;
23658;SDS011;12006;42.666;23.326;2023-03-01T09:09:10;4.07;;;3.10;;
23658;SDS011;12006;42.666;23.326;2023-03-01T09:11:41;2.80;;;2.60;;
23658;SDS011;12006;42.666;23.326;2023-03-01T09:14:08;4.43;;;3.37;;
23658;SDS011;12006;42.666;23.326;2023-03-01T09:16:33;2.70;;;2.50;;
23658;SDS011;12006;42.666;23.326;2023-03-01T09:19:01;3.00;;;2.73;;
23658;SDS011;12006;42.666;23.326;2023-03-01T09:21:27;4.03;;;2.20;;
23658;SDS011;12006;42.666;23.326;2023-03-01T09:23:53;2.70;;;2.47;;
23658;SDS011;12006;42.666;23.326;2023-03-01T09:26:19;3.47;;;2.83;;
23658;SDS011;12006;42.666;23.326;2023-03-01T09:28:49;3.50;;;3.20;;
23658;SDS011;12006;42.666;23.326;2023-03-01T09:31:16;4.57;;;2.73;;
23658;SDS011;12006;42.666;23.326;2023-03-01T09:33:44;3.47;;;2.93;;
23658;SDS011;12006;42.666;23.326;2023-03-01T09:36:12;2.80;;;2.33;;
23658;SDS011;12006;42.666;23.326;2023-03-01T09:38:40;3.50;;;2.63;;
23658;SDS011;12006;42.666;23.326;2023-03-01T09:41:09;2.03;;;1.83;;
23658;SDS011;12006;42.666;23.326;2023-03-01T09:43:56;1.90;;;1.53;;
23658;SDS011;12006;42.666;23.326;2023-03-01T09:46:28;3.33;;;2.20;;
23658;SDS011;12006;42.666;23.326;2023-03-01T09:49:04;3.30;;;1.87;;
23658;SDS011;12006;42.666;23.326;2023-03-01T09:51:35;2.53;;;1.77;;
23658;SDS011;12006;42.666;23.326;2023-03-01T09:54:02;2.80;;;1.50;;
23658;SDS011;12006;42.666;23.326;2023-03-01T10:01:40;1.40;;;1.30;;
23658;SDS011;12006;42.666;23.326;2023-03-01T10:06:36;3.77;;;2.13;;
23658;SDS011;12006;42.666;23.326;2023-03-01T10:09:10;2.27;;;1.60;;
23658;SDS011;12006;42.666;23.326;2023-03-01T10:11:40;1.50;;;1.40;;
23658;SDS011;12006;42.666;23.326;2023-03-01T10:17:38;2.37;;;2.10;;
23658;SDS011;12006;42.666;23.326;2023-03-01T10:20:23;2.10;;;1.90;;
23658;SDS011;12006;42.666;23.326;2023-03-01T10:22:50;2.33;;;1.97;;
23658;SDS011;12006;42.666;23.326;2023-03-01T10:28:12;2.60;;;2.40;;
23658;SDS011;12006;42.666;23.326;2023-03-01T10:30:42;4.37;;;3.67;;
23658;SDS011;12006;42.666;23.326;2023-03-01T10:33:20;2.20;;;2.00;;
23658;SDS011;12006;42.666;23.326;2023-03-01T10:35:49;3.07;;;2.57;;
23658;SDS011;12006;42.666;23.326;2023-03-01T10:38:15;2.03;;;1.83;;
23658;SDS011;12006;42.666;23.326;2023-03-01T10:41:04;2.20;;;2.00;;
23658;SDS011;12006;42.666;23.326;2023-03-01T10:43:47;2.30;;;1.77;;
23658;SDS011;12006;42.666;23.326;2023-03-01T10:46:36;2.57;;;2.30;;
23658;SDS011;12006;42.666;23.326;2023-03-01T10:49:18;2.70;;;2.00;;
23658;SDS011;12006;42.666;23.326;2023-03-01T10:51:47;2.73;;;2.53;;
23658;SDS011;12006;42.666;23.326;2023-03-01T10:54:30;2.67;;;2.47;;
23658;SDS011;12006;42.666;23.326;2023-03-01T10:56:59;2.83;;;2.50;;
23658;SDS011;12006;42.666;23.326;2023-03-01T10:59:27;3.27;;;2.70;;
23658;SDS011;12006;42.666;23.326;2023-03-01T11:02:15;2.37;;;2.10;;
23658;SDS011;12006;42.666;23.326;2023-03-01T11:05:00;2.50;;;2.30;;
23658;SDS011;12006;42.666;23.326;2023-03-01T11:07:27;2.80;;;2.60;;
23658;SDS011;12006;42.666;23.326;2023-03-01T11:09:53;3.13;;;2.73;;
23658;SDS011;12006;42.666;23.326;2023-03-01T11:12:20;3.20;;;2.23;;
23658;SDS011;12006;42.666;23.326;2023-03-01T11:14:47;2.70;;;2.20;;
23658;SDS011;12006;42.666;23.326;2023-03-01T11:19:42;2.60;;;2.40;;
23658;SDS011;12006;42.666;23.326;2023-03-01T11:24:53;3.10;;;2.20;;
23658;SDS011;12006;42.666;23.326;2023-03-01T11:27:21;5.03;;;3.13;;
23658;SDS011;12006;42.666;23.326;2023-03-01T11:32:45;2.43;;;2.23;;
23658;SDS011;12006;42.666;23.326;2023-03-01T11:35:19;3.40;;;3.03;;
23658;SDS011;12006;42.666;23.326;2023-03-01T11:43:14;3.93;;;2.77;;
23658;SDS011;12006;42.666;23.326;2023-03-01T11:48:29;5.00;;;3.00;;
23658;SDS011;12006;42.666;23.326;2023-03-01T11:51:19;2.90;;;2.60;;
23658;SDS011;12006;42.666;23.326;2023-03-01T11:56:28;3.60;;;3.30;;
23658;SDS011;12006;42.666;23.326;2023-03-01T12:20:36;3.23;;;2.93;;
23658;SDS011;12006;42.666;23.326;2023-03-01T12:26:33;3.57;;;3.27;;
23658;SDS011;12006;42.666;23.326;2023-03-01T12:29:07;3.40;;;3.10;;
23658;SDS011;12006;42.666;23.326;2023-03-01T12:34:35;3.03;;;2.83;;
23658;SDS011;12006;42.666;23.326;2023-03-01T12:42:24;3.40;;;3.20;;
23658;SDS011;12006;42.666;23.326;2023-03-01T12:50:17;3.53;;;3.23;;
23658;SDS011;12006;42.666;23.326;2023-03-01T12:52:50;3.20;;;2.90;;
23658;SDS011;12006;42.666;23.326;2023-03-01T12:58:19;3.70;;;3.40;;
23658;SDS011;12006;42.666;23.326;2023-03-01T13:06:32;3.43;;;3.13;;
23658;SDS011;12006;42.666;23.326;2023-03-01T13:09:09;3.30;;;3.00;;
23658;SDS011;12006;42.666;23.326;2023-03-01T13:11:42;3.47;;;3.00;;
23658;SDS011;12006;42.666;23.326;2023-03-01T13:16:45;4.50;;;4.10;;
23658;SDS011;12006;42.666;23.326;2023-03-01T13:19:21;5.77;;;4.07;;
23658;SDS011;12006;42.666;23.326;2023-03-01T13:21:48;7.80;;;5.30;;
23658;SDS011;12006;42.666;23.326;2023-03-01T13:24:25;4.83;;;3.67;;
23658;SDS011;12006;42.666;23.326;2023-03-01T13:29:44;4.03;;;3.53;;
23658;SDS011;12006;42.666;23.326;2023-03-01T13:32:24;4.67;;;3.40;;
23658;SDS011;12006;42.666;23.326;2023-03-01T13:34:57;3.10;;;2.80;;
23658;SDS011;12006;42.666;23.326;2023-03-01T13:37:29;3.43;;;3.13;;
23658;SDS011;12006;42.666;23.326;2023-03-01T13:40:01;6.43;;;3.53;;
23658;SDS011;12006;42.666;23.326;2023-03-01T13:42:51;4.93;;;4.40;;
23658;SDS011;12006;42.666;23.326;2023-03-01T13:45:20;4.50;;;4.10;;
23658;SDS011;12006;42.666;23.326;2023-03-01T13:47:53;3.93;;;3.57;;
23658;SDS011;12006;42.666;23.326;2023-03-01T13:50:24;3.57;;;3.27;;
23658;SDS011;12006;42.666;23.326;2023-03-01T13:52:56;4.10;;;3.70;;
23658;SDS011;12006;42.666;23.326;2023-03-01T13:55:25;4.43;;;4.00;;
23658;SDS011;12006;42.666;23.326;2023-03-01T13:57:57;4.27;;;3.87;;
23658;SDS011;12006;42.666;23.326;2023-03-01T14:00:36;4.40;;;3.67;;
23658;SDS011;12006;42.666;23.326;2023-03-01T14:03:05;3.87;;;3.47;;
23658;SDS011;12006;42.666;23.326;2023-03-01T14:05:34;3.50;;;3.20;;
23658;SDS011;12006;42.666;23.326;2023-03-01T14:08:02;5.07;;;4.57;;
23658;SDS011;12006;42.666;23.326;2023-03-01T14:10:44;4.97;;;4.47;;
23658;SDS011;12006;42.666;23.326;2023-03-01T14:13:32;3.40;;;3.10;;
23658;SDS011;12006;42.666;23.326;2023-03-01T14:16:23;5.17;;;3.47;;
23658;SDS011;12006;42.666;23.326;2023-03-01T14:22:12;4.37;;;3.50;;
23658;SDS011;12006;42.666;23.326;2023-03-01T14:24:48;4.73;;;3.33;;
23658;SDS011;12006;42.666;23.326;2023-03-01T14:27:16;5.57;;;3.03;;
23658;SDS011;12006;42.666;23.326;2023-03-01T14:29:43;3.80;;;3.30;;
23658;SDS011;12006;42.666;23.326;2023-03-01T14:32:19;4.37;;;3.90;;
23658;SDS011;12006;42.666;23.326;2023-03-01T14:34:47;4.43;;;3.90;;
23658;SDS011;12006;42.666;23.326;2023-03-01T14:37:20;3.70;;;3.20;;
23658;SDS011;12006;42.666;23.326;2023-03-01T14:39:49;4.33;;;3.20;;
23658;SDS011;12006;42.666;23.326;2023-03-01T14:42:15;3.37;;;2.90;;
23658;SDS011;12006;42.666;23.326;2023-03-01T14:44:45;3.40;;;2.87;;
23658;SDS011;12006;42.666;23.326;2023-03-01T14:47:15;3.30;;;3.00;;
23658;SDS011;12006;42.666;23.326;2023-03-01T14:49:53;3.93;;;2.80;;
23658;SDS011;12006;42.666;23.326;2023-03-01T14:52:36;3.67;;;2.53;;
23658;SDS011;12006;42.666;23.326;2023-03-01T14:55:04;4.40;;;3.30;;
23658;SDS011;12006;42.666;23.326;2023-03-01T14:57:42;2.70;;;2.07;;
23658;SDS011;12006;42.666;23.326;2023-03-01T15:00:10;4.10;;;2.40;;
23658;SDS011;12006;42.666;23.326;2023-03-01T15:02:42;3.90;;;2.50;;
23658;SDS011;12006;42.666;23.326;2023-03-01T15:05:08;4.03;;;2.20;;
23658;SDS011;12006;42.666;23.326;2023-03-01T15:07:37;5.57;;;3.60;;
23658;SDS011;12006;42.666;23.326;2023-03-01T15:10:05;7.83;;;3.07;;
23658;SDS011;12006;42.666;23.326;2023-03-01T15:15:18;4.43;;;3.17;;
23658;SDS011;12006;42.666;23.326;2023-03-01T15:18:11;3.17;;;2.80;;
23658;SDS011;12006;42.666;23.326;2023-03-01T15:20:40;5.30;;;2.90;;
23658;SDS011;12006;42.666;23.326;2023-03-01T15:23:12;4.63;;;2.70;;
23658;SDS011;12006;42.666;23.326;2023-03-01T15:25:53;4.03;;;3.63;;
23658;SDS011;12006;42.666;23.326;2023-03-01T15:28:36;5.00;;;3.23;;
23658;SDS011;12006;42.666;23.326;2023-03-01T15:33:48;3.80;;;3.40;;
23658;SDS011;12006;42.666;23.326;2023-03-01T15:39:31;5.30;;;3.47;;
23658;SDS011;12006;42.666;23.326;2023-03-01T15:42:09;3.97;;;3.33;;
23658;SDS011;12006;42.666;23.326;2023-03-01T15:48:02;4.87;;;4.17;;
23658;SDS011;12006;42.666;23.326;2023-03-01T15:50:34;4.00;;;3.10;;
23658;SDS011;12006;42.666;23.326;2023-03-01T15:53:01;5.30;;;4.10;;
23658;SDS011;12006;42.666;23.326;2023-03-01T15:55:33;4.67;;;3.73;;
23658;SDS011;12006;42.666;23.326;2023-03-01T16:00:31;4.60;;;3.50;;
23658;SDS011;12006;42.666;23.326;2023-03-01T16:02:56;3.23;;;2.93;;
23658;SDS011;12006;42.666;23.326;2023-03-01T16:05:24;6.77;;;3.30;;
23658;SDS011;12006;42.666;23.326;2023-03-01T16:07:55;4.27;;;3.30;;
23658;SDS011;12006;42.666;23.326;2023-03-01T16:10:21;3.70;;;3.23;;
23658;SDS011;12006;42.666;23.326;2023-03-01T16:12:47;4.10;;;3.53;;
23658;SDS011;12006;42.666;23.326;2023-03-01T16:15:20;5.40;;;3.40;;
23658;SDS011;12006;42.666;23.326;2023-03-01T16:17:47;3.77;;;3.00;;
23658;SDS011;12006;42.666;23.326;2023-03-01T16:20:14;4.07;;;3.07;;
23658;SDS011;12006;42.666;23.326;2023-03-01T16:22:41;4.23;;;2.80;;
23658;SDS011;12006;42.666;23.326;2023-03-01T16:25:08;4.13;;;3.30;;
23658;SDS011;12006;42.666;23.326;2023-03-01T16:27:35;4.83;;;3.07;;
23658;SDS011;12006;42.666;23.326;2023-03-01T16:30:00;4.20;;;2.83;;
23658;SDS011;12006;42.666;23.326;2023-03-01T16:32:25;3.63;;;3.17;;
23658;SDS011;12006;42.666;23.326;2023-03-01T16:34:51;3.73;;;2.60;;
23658;SDS011;12006;42.666;23.326;2023-03-01T16:37:16;3.67;;;2.80;;